createdAt,value
2018-04-16T00:01:25.200Z,100639.26
2018-04-16T00:03:53.043Z,100635.34
2018-04-16T00:06:20.634Z,100634.14
2018-04-16T00:08:48.163Z,100630.31
2018-04-16T00:11:15.706Z,100625.12
2018-04-16T00:13:43.246Z,100621.59
2018-04-16T00:16:10.780Z,100616.22
2018-04-16T00:18:38.313Z,100614.05
2018-04-16T00:21:05.843Z,100611.88
2018-04-16T00:23:33.391Z,100610.97
2018-04-16T00:26:00.912Z,100603.94
2018-04-16T00:28:28.671Z,100605.39
2018-04-16T00:30:56.216Z,100600.32
2018-04-16T00:33:29.455Z,100601.21
2018-04-16T00:36:02.706Z,100594.90
2018-04-16T00:41:51.183Z,100594.36
2018-04-16T00:44:24.340Z,100589.54
2018-04-16T00:46:57.387Z,100585.30
2018-04-16T00:49:30.495Z,100594.41
2018-04-16T00:52:03.711Z,100605.27
2018-04-16T00:54:36.800Z,100603.72
2018-04-16T00:57:09.982Z,100609.86
2018-04-16T00:59:43.149Z,100604.27
2018-04-16T01:02:16.389Z,100606.23
2018-04-16T01:04:49.607Z,100600.86
2018-04-16T01:07:22.735Z,100604.30
2018-04-16T01:09:55.912Z,100602.66
2018-04-16T01:12:28.956Z,100602.76
2018-04-16T01:15:02.028Z,100607.44
2018-04-16T01:17:35.298Z,100604.52
2018-04-16T01:20:08.384Z,100613.93
2018-04-16T01:22:41.584Z,100609.89
2018-04-16T01:25:14.700Z,100604.11
2018-04-16T01:27:47.906Z,100604.55
2018-04-16T01:30:25.976Z,100594.93
2018-04-16T01:32:59.431Z,100591.62
2018-04-16T01:35:32.553Z,100589.79
2018-04-16T01:38:06.259Z,100595.89
2018-04-16T01:40:39.524Z,100597.34
2018-04-16T01:43:12.615Z,100592.89
2018-04-16T01:45:45.622Z,100589.69
2018-04-16T01:48:18.991Z,100590.17
2018-04-16T01:50:52.246Z,100589.14
2018-04-16T01:53:25.386Z,100591.96
2018-04-16T01:55:58.635Z,100584.31
2018-04-16T01:58:31.720Z,100583.41
2018-04-16T02:01:04.944Z,100589.20
2018-04-16T02:03:38.134Z,100585.38
2018-04-16T02:06:11.205Z,100576.80
2018-04-16T02:08:44.188Z,100567.14
2018-04-16T02:11:17.407Z,100559.94
2018-04-16T02:16:55.244Z,100562.34
2018-04-16T02:19:28.400Z,100558.52
2018-04-16T02:22:01.582Z,100547.98
2018-04-16T02:24:34.639Z,100546.63
2018-04-16T02:27:07.731Z,100544.98
2018-04-16T02:29:40.914Z,100546.53
2018-04-16T02:32:13.988Z,100534.77
2018-04-16T02:34:47.084Z,100539.66
2018-04-16T02:37:20.272Z,100542.52
2018-04-16T02:39:53.435Z,100537.88
2018-04-16T02:42:26.576Z,100543.56
2018-04-16T02:44:59.586Z,100557.62
2018-04-16T02:47:32.853Z,100558.23
2018-04-16T02:50:05.899Z,100555.58
2018-04-16T02:52:39.289Z,100566.02
2018-04-16T02:58:15.557Z,100572.32
2018-04-16T03:03:52.830Z,100583.25
2018-04-16T03:06:25.907Z,100579.63
2018-04-16T03:08:59.021Z,100584.88
2018-04-16T03:11:32.230Z,100587.59
2018-04-16T03:14:05.459Z,100579.76
2018-04-16T03:16:38.581Z,100579.04
2018-04-16T03:19:12.090Z,100580.07
2018-04-16T03:21:45.241Z,100581.11
2018-04-16T03:24:18.495Z,100582.86
2018-04-16T03:26:51.977Z,100590.43
2018-04-16T03:29:25.123Z,100593.30
2018-04-16T03:31:58.376Z,100602.11
2018-04-16T03:34:31.318Z,100608.73
2018-04-16T03:37:04.263Z,100595.88
2018-04-16T03:39:37.544Z,100594.55
2018-04-16T03:42:10.654Z,100594.93
2018-04-16T03:44:44.071Z,100598.34
2018-04-16T03:47:17.303Z,100604.44
2018-04-16T03:49:50.562Z,100601.47
2018-04-16T03:52:23.613Z,100590.33
2018-04-16T03:57:54.219Z,100591.88
2018-04-16T04:00:22.022Z,100589.91
2018-04-16T04:02:49.533Z,100584.02
2018-04-16T04:05:17.070Z,100593.31
2018-04-16T04:07:44.605Z,100588.77
2018-04-16T04:10:12.160Z,100582.67
2018-04-16T04:12:39.724Z,100597.03
2018-04-16T04:15:07.280Z,100597.98
2018-04-16T04:17:34.807Z,100604.83
2018-04-16T04:20:02.332Z,100606.79
2018-04-16T04:22:41.739Z,100610.72
2018-04-16T04:25:21.133Z,100604.20
2018-04-16T04:28:00.446Z,100613.00
2018-04-16T04:30:45.746Z,100613.09
2018-04-16T04:33:13.260Z,100614.34
2018-04-16T04:35:40.843Z,100611.66
2018-04-16T04:38:08.374Z,100609.89
2018-04-16T04:40:35.928Z,100619.61
2018-04-16T04:43:03.431Z,100623.73
2018-04-16T04:45:30.967Z,100628.59
2018-04-16T04:47:58.632Z,100628.80
2018-04-16T04:50:26.137Z,100634.48
2018-04-16T04:52:53.648Z,100637.27
2018-04-16T04:55:21.184Z,100644.61
2018-04-16T04:57:48.714Z,100651.01
2018-04-16T05:00:16.277Z,100653.80
2018-04-16T05:02:43.811Z,100656.91
2018-04-16T05:05:11.348Z,100654.51
2018-04-16T05:07:38.904Z,100668.16
2018-04-16T05:10:06.438Z,100662.34
2018-04-16T05:12:33.998Z,100659.05
2018-04-16T05:15:01.888Z,100658.00
2018-04-16T05:17:29.460Z,100662.03
2018-04-16T05:19:57.000Z,100672.77
2018-04-16T05:22:24.560Z,100674.20
2018-04-16T05:24:52.126Z,100678.78
2018-04-16T05:27:19.670Z,100684.86
2018-04-16T05:29:47.220Z,100688.67
2018-04-16T05:32:14.793Z,100690.63
2018-04-16T05:34:42.347Z,100694.66
2018-04-16T05:37:09.906Z,100703.52
2018-04-16T05:39:37.432Z,100709.18
2018-04-16T05:42:04.978Z,100718.66
2018-04-16T05:44:32.508Z,100712.66
2018-04-16T05:47:00.047Z,100715.57
2018-04-16T05:49:27.549Z,100729.38
2018-04-16T05:51:55.085Z,100743.02
2018-04-16T05:54:22.855Z,100746.00
2018-04-16T05:56:50.381Z,100748.68
2018-04-16T05:59:17.909Z,100754.44
2018-04-16T06:01:45.431Z,100760.19
2018-04-16T06:04:13.297Z,100752.14
2018-04-16T06:06:40.962Z,100756.17
2018-04-16T06:09:08.621Z,100763.30
2018-04-16T06:11:36.187Z,100760.83
2018-04-16T06:14:03.713Z,100771.53
2018-04-16T06:16:31.280Z,100780.41
2018-04-16T06:18:59.072Z,100782.87
2018-04-16T06:21:26.626Z,100782.36
2018-04-16T06:23:54.147Z,100784.12
2018-04-16T06:26:21.695Z,100790.39
2018-04-16T06:28:49.444Z,100791.22
2018-04-16T06:31:17.117Z,100794.95
2018-04-16T06:33:45.030Z,100800.86
2018-04-16T06:36:12.542Z,100796.20
2018-04-16T06:38:40.164Z,100794.41
2018-04-16T06:41:07.715Z,100802.67
2018-04-16T06:43:35.600Z,100800.28
2018-04-16T06:46:03.141Z,100799.26
2018-04-16T06:48:30.926Z,100798.75
2018-04-16T06:50:58.482Z,100795.63
2018-04-16T06:53:26.003Z,100801.84
2018-04-16T06:55:53.554Z,100805.78
2018-04-16T06:58:21.082Z,100806.22
2018-04-16T07:00:48.633Z,100810.88
2018-04-16T07:03:16.507Z,100814.78
2018-04-16T07:05:44.036Z,100820.56
2018-04-16T07:08:11.595Z,100818.00
2018-04-16T07:10:39.120Z,100823.88
2018-04-16T07:13:06.835Z,100823.53
2018-04-16T07:15:34.374Z,100826.13
2018-04-16T07:18:01.950Z,100833.53
2018-04-16T07:20:29.487Z,100832.70
2018-04-16T07:22:57.028Z,100839.43
2018-04-16T07:25:24.574Z,100838.79
2018-04-16T07:27:52.174Z,100840.87
2018-04-16T07:30:19.727Z,100840.03
2018-04-16T07:32:47.254Z,100847.25
2018-04-16T07:35:15.100Z,100846.45
2018-04-16T07:37:42.688Z,100847.93
2018-04-16T07:40:10.328Z,100850.87
2018-04-16T07:42:37.908Z,100851.61
2018-04-16T07:45:05.708Z,100855.59
2018-04-16T07:47:33.335Z,100863.14
2018-04-16T07:50:00.979Z,100863.33
2018-04-16T07:52:29.020Z,100865.31
2018-04-16T07:54:57.117Z,100870.00
2018-04-16T07:57:25.132Z,100871.22
2018-04-16T07:59:53.568Z,100871.70
2018-04-16T08:02:21.701Z,100873.17
2018-04-16T08:04:49.658Z,100875.53
2018-04-16T08:07:17.448Z,100875.05
2018-04-16T08:09:45.047Z,100878.66
2018-04-16T08:12:12.622Z,100877.13
2018-04-16T08:14:40.148Z,100880.48
2018-04-16T08:17:07.717Z,100886.87
2018-04-16T08:19:37.077Z,100885.34
2018-04-16T08:22:04.629Z,100883.90
2018-04-16T08:24:32.155Z,100891.11
2018-04-16T08:26:59.691Z,100886.17
2018-04-16T08:29:27.231Z,100881.98
2018-04-16T08:31:54.807Z,100887.45
2018-04-16T08:34:22.372Z,100882.81
2018-04-16T08:36:49.911Z,100889.18
2018-04-16T08:39:17.822Z,100890.74
2018-04-16T08:41:45.560Z,100888.37
2018-04-16T08:44:13.091Z,100883.88
2018-04-16T08:46:40.931Z,100884.86
2018-04-16T08:49:08.447Z,100882.27
2018-04-16T08:51:36.044Z,100881.71
2018-04-16T08:54:03.569Z,100876.88
2018-04-16T08:56:31.085Z,100873.31
2018-04-16T08:58:58.608Z,100862.08
2018-04-16T09:01:26.126Z,100866.04
2018-04-16T09:03:53.663Z,100867.61
2018-04-16T09:06:21.190Z,100868.64
2018-04-16T09:08:48.817Z,100865.77
2018-04-16T09:11:16.312Z,100860.59
2018-04-16T09:13:44.183Z,100856.69
2018-04-16T09:16:11.735Z,100852.45
2018-04-16T09:18:39.288Z,100849.75
2018-04-16T09:21:06.839Z,100852.85
2018-04-16T09:23:34.365Z,100857.09
2018-04-16T09:26:01.947Z,100852.65
2018-04-16T09:28:29.476Z,100853.20
2018-04-16T09:30:57.032Z,100847.30
2018-04-16T09:33:24.602Z,100849.70
2018-04-16T09:35:52.163Z,100850.16
2018-04-16T09:38:19.759Z,100847.01
2018-04-16T09:40:47.276Z,100845.53
2018-04-16T09:43:14.840Z,100843.80
2018-04-16T09:45:42.425Z,100841.51
2018-04-16T09:48:10.233Z,100835.73
2018-04-16T09:50:37.807Z,100841.30
2018-04-16T09:53:05.375Z,100837.98
2018-04-16T09:55:33.222Z,100843.06
2018-04-16T09:58:00.751Z,100842.94
2018-04-16T10:00:28.329Z,100847.30
2018-04-16T10:02:57.883Z,100849.68
2018-04-16T10:05:25.424Z,100850.59
2018-04-16T10:07:53.001Z,100848.95
2018-04-16T10:10:20.534Z,100857.64
2018-04-16T10:12:48.281Z,100854.11
2018-04-16T10:15:15.938Z,100855.78
2018-04-16T10:17:44.143Z,100857.02
2018-04-16T10:20:11.731Z,100850.59
2018-04-16T10:22:39.691Z,100853.58
2018-04-16T10:25:07.541Z,100853.79
2018-04-16T10:27:35.639Z,100847.86
2018-04-16T10:30:03.828Z,100845.69
2018-04-16T10:32:31.491Z,100843.89
2018-04-16T10:34:59.201Z,100842.08
2018-04-16T10:37:27.015Z,100842.26
2018-04-16T10:39:54.813Z,100843.92
2018-04-16T10:42:22.788Z,100841.18
2018-04-16T10:44:50.424Z,100838.50
2018-04-16T10:47:17.948Z,100842.86
2018-04-16T10:49:45.518Z,100847.28
2018-04-16T10:52:13.060Z,100847.17
2018-04-16T10:54:40.625Z,100843.75
2018-04-16T10:57:08.576Z,100844.27
2018-04-16T10:59:37.000Z,100842.77
2018-04-16T11:02:04.558Z,100850.31
2018-04-16T11:04:32.287Z,100856.38
2018-04-16T11:06:59.849Z,100854.35
2018-04-16T11:09:27.427Z,100853.87
2018-04-16T11:11:55.009Z,100842.08
2018-04-16T11:14:22.620Z,100831.97
2018-04-16T11:16:50.213Z,100833.80
2018-04-16T11:19:17.744Z,100835.97
2018-04-16T11:21:45.375Z,100841.38
2018-04-16T11:24:12.887Z,100845.48
2018-04-16T11:26:40.431Z,100849.21
2018-04-16T11:29:07.990Z,100842.34
2018-04-16T11:31:35.541Z,100850.53
2018-04-16T11:34:03.115Z,100851.73
2018-04-16T11:36:30.656Z,100853.20
2018-04-16T11:38:58.177Z,100848.54
2018-04-16T11:41:25.769Z,100846.22
2018-04-16T11:43:53.296Z,100845.23
2018-04-16T11:46:20.882Z,100845.45
2018-04-16T11:48:48.437Z,100846.66
2018-04-16T11:51:15.990Z,100847.39
2018-04-16T11:53:43.544Z,100849.31
2018-04-16T11:56:11.108Z,100846.69
2018-04-16T11:58:38.675Z,100854.19
2018-04-16T12:01:06.201Z,100855.97
2018-04-16T12:03:34.074Z,100855.37
2018-04-16T12:06:01.633Z,100860.39
2018-04-16T12:08:29.323Z,100861.10
2018-04-16T12:10:56.888Z,100866.43
2018-04-16T12:13:24.658Z,100864.80
2018-04-16T12:15:52.180Z,100869.06
2018-04-16T12:18:19.766Z,100879.38
2018-04-16T12:20:47.322Z,100886.83
2018-04-16T12:23:14.852Z,100887.83
2018-04-16T12:25:42.416Z,100883.41
2018-04-16T12:28:09.941Z,100883.89
2018-04-16T12:30:37.697Z,100882.66
2018-04-16T12:33:05.227Z,100884.20
2018-04-16T12:35:32.840Z,100880.19
2018-04-16T12:38:00.401Z,100879.84
2018-04-16T12:40:27.961Z,100879.67
2018-04-16T12:42:55.513Z,100891.30
2018-04-16T12:45:23.062Z,100893.16
2018-04-16T12:47:50.627Z,100899.04
2018-04-16T12:50:18.159Z,100895.77
2018-04-16T12:52:46.005Z,100896.20
2018-04-16T12:55:13.568Z,100901.37
2018-04-16T12:57:41.195Z,100899.98
2018-04-16T13:00:08.754Z,100900.02
2018-04-16T13:02:36.377Z,100896.62
2018-04-16T13:05:03.915Z,100898.63
2018-04-16T13:07:31.467Z,100905.34
2018-04-16T13:09:59.348Z,100903.30
2018-04-16T13:12:26.902Z,100904.30
2018-04-16T13:14:54.521Z,100903.88
2018-04-16T13:17:22.068Z,100909.28
2018-04-16T13:19:49.689Z,100904.06
2018-04-16T13:22:17.216Z,100912.64
2018-04-16T13:24:45.128Z,100914.47
2018-04-16T13:27:13.192Z,100923.27
2018-04-16T13:29:40.768Z,100926.34
2018-04-16T13:32:08.531Z,100925.32
2018-04-16T13:34:37.325Z,100925.09
2018-04-16T13:37:05.041Z,100933.52
2018-04-16T13:39:32.745Z,100926.56
2018-04-16T13:42:00.498Z,100927.00
2018-04-16T13:44:29.298Z,100929.64
2018-04-16T13:46:57.721Z,100929.91
2018-04-16T13:49:25.556Z,100933.58
2018-04-16T13:51:53.152Z,100933.08
2018-04-16T13:54:20.785Z,100938.91
2018-04-16T13:56:48.341Z,100935.97
2018-04-16T13:59:15.895Z,100941.00
2018-04-16T14:01:43.487Z,100949.89
2018-04-16T14:04:11.010Z,100947.73
2018-04-16T14:06:38.679Z,100952.45
2018-04-16T14:09:06.263Z,100958.28
2018-04-16T14:11:33.809Z,100959.26
2018-04-16T14:14:03.128Z,100957.95
2018-04-16T14:16:30.658Z,100963.08
2018-04-16T14:18:58.216Z,100967.87
2018-04-16T14:21:25.794Z,100966.94
2018-04-16T14:23:53.373Z,100975.09
2018-04-16T14:26:21.012Z,100969.70
2018-04-16T14:28:48.600Z,100976.00
2018-04-16T14:31:16.460Z,100971.30
2018-04-16T14:33:44.121Z,100977.76
2018-04-16T14:36:11.651Z,100979.31
2018-04-16T14:38:39.274Z,100979.58
2018-04-16T14:41:06.942Z,100985.10
2018-04-16T14:43:34.492Z,100988.03
2018-04-16T14:46:02.102Z,100989.59
2018-04-16T14:48:29.721Z,100986.68
2018-04-16T14:50:57.317Z,100992.72
2018-04-16T14:53:24.885Z,100997.27
2018-04-16T14:55:52.458Z,100992.80
2018-04-16T14:58:20.405Z,101002.23
2018-04-16T15:00:48.569Z,101000.38
2018-04-16T15:03:16.404Z,100997.19
2018-04-16T15:05:43.976Z,100999.89
2018-04-16T15:08:11.606Z,101002.19
2018-04-16T15:10:39.200Z,101003.31
2018-04-16T15:13:06.806Z,101009.65
2018-04-16T15:15:34.531Z,101013.36
2018-04-16T15:18:02.092Z,101014.91
2018-04-16T15:20:29.642Z,101017.92
2018-04-16T15:22:57.196Z,101018.04
2018-04-16T15:25:27.353Z,101020.00
2018-04-16T15:27:55.200Z,101018.76
2018-04-16T15:30:22.782Z,101019.80
2018-04-16T15:32:50.577Z,101021.77
2018-04-16T15:35:19.080Z,101020.71
2018-04-16T15:37:46.633Z,101026.31
2018-04-16T15:40:14.201Z,101022.19
2018-04-16T15:42:41.744Z,101023.13
2018-04-16T15:45:09.349Z,101021.33
2018-04-16T15:47:37.299Z,101028.56
2018-04-16T15:50:04.836Z,101027.33
2018-04-16T15:52:33.360Z,101026.80
2018-04-16T15:55:01.251Z,101027.13
2018-04-16T15:57:28.773Z,101034.45
2018-04-16T15:59:56.369Z,101030.01
2018-04-16T16:02:24.227Z,101032.30
2018-04-16T16:04:51.855Z,101034.88
2018-04-16T16:07:19.411Z,101035.92
2018-04-16T16:09:47.014Z,101038.28
2018-04-16T16:12:14.584Z,101040.48
2018-04-16T16:14:42.157Z,101043.37
2018-04-16T16:17:09.756Z,101034.88
2018-04-16T16:19:37.294Z,101042.53
2018-04-16T16:22:04.813Z,101047.72
2018-04-16T16:24:32.399Z,101051.53
2018-04-16T16:26:59.928Z,101049.89
2018-04-16T16:29:27.478Z,101051.55
2018-04-16T16:31:55.035Z,101053.11
2018-04-16T16:34:22.586Z,101046.38
2018-04-16T16:36:50.299Z,101051.53
2018-04-16T16:39:17.858Z,101054.22
2018-04-16T16:41:45.725Z,101052.48
2018-04-16T16:44:13.241Z,101056.41
2018-04-16T16:46:41.156Z,101057.55
2018-04-16T16:49:09.142Z,101057.03
2018-04-16T16:51:36.701Z,101061.48
2018-04-16T16:54:04.451Z,101066.34
2018-04-16T16:56:32.937Z,101066.11
2018-04-16T16:59:00.564Z,101063.13
2018-04-16T17:01:28.135Z,101077.00
2018-04-16T17:03:55.796Z,101069.95
2018-04-16T17:06:23.798Z,101076.89
2018-04-16T17:08:52.071Z,101073.16
2018-04-16T17:11:19.686Z,101073.69
2018-04-16T17:13:47.525Z,101074.52
2018-04-16T17:16:15.126Z,101079.70
2018-04-16T17:18:42.760Z,101084.75
2018-04-16T17:21:10.382Z,101080.70
2018-04-16T17:23:37.905Z,101084.54
2018-04-16T17:26:05.536Z,101085.05
2018-04-16T17:28:33.079Z,101089.19
2018-04-16T17:31:00.645Z,101092.62
2018-04-16T17:33:28.283Z,101096.76
2018-04-16T17:35:55.835Z,101099.96
2018-04-16T17:38:23.493Z,101097.91
2018-04-16T17:40:51.049Z,101098.61
2018-04-16T17:43:18.647Z,101102.55
2018-04-16T17:45:46.182Z,101106.16
2018-04-16T17:48:13.764Z,101110.94
2018-04-16T17:50:41.334Z,101109.80
2018-04-16T17:53:08.865Z,101100.58
2018-04-16T17:55:36.427Z,101111.34
2018-04-16T17:58:03.934Z,101116.61
2018-04-16T18:00:31.575Z,101118.47
2018-04-16T18:02:59.163Z,101125.81
2018-04-16T18:05:27.002Z,101132.41
2018-04-16T18:07:54.907Z,101125.19
2018-04-16T18:10:22.534Z,101135.43
2018-04-16T18:12:50.089Z,101132.00
2018-04-16T18:15:17.612Z,101139.75
2018-04-16T18:17:45.619Z,101142.45
2018-04-16T18:20:13.189Z,101136.33
2018-04-16T18:22:40.741Z,101142.17
2018-04-16T18:25:08.307Z,101146.11
2018-04-16T18:27:35.936Z,101149.50
2018-04-16T18:30:03.827Z,101148.16
2018-04-16T18:32:31.413Z,101154.88
2018-04-16T18:34:58.959Z,101152.00
2018-04-16T18:37:26.540Z,101159.05
2018-04-16T18:39:54.060Z,101158.87
2018-04-16T18:42:21.615Z,101164.26
2018-04-16T18:44:49.216Z,101170.98
2018-04-16T18:47:16.787Z,101177.52
2018-04-16T18:49:44.350Z,101189.30
2018-04-16T18:52:11.878Z,101189.23
2018-04-16T18:54:39.394Z,101189.84
2018-04-16T18:57:07.417Z,101194.70
2018-04-16T18:59:34.952Z,101202.17
2018-04-16T19:02:02.589Z,101209.41
2018-04-16T19:04:30.130Z,101207.03
2018-04-16T19:06:58.105Z,101213.63
2018-04-16T19:09:25.885Z,101215.11
2018-04-16T19:11:53.570Z,101210.66
2018-04-16T19:14:21.099Z,101215.39
2018-04-16T19:16:48.655Z,101216.13
2018-04-16T19:19:16.242Z,101221.28
2018-04-16T19:21:49.357Z,101228.94
2018-04-16T19:24:16.921Z,101220.13
2018-04-16T19:26:50.301Z,101231.91
2018-04-16T19:29:19.927Z,101228.48
2018-04-16T19:31:47.629Z,101233.03
2018-04-16T19:34:26.337Z,101240.39
2018-04-16T19:36:54.192Z,101244.33
2018-04-16T19:39:21.829Z,101244.72
2018-04-16T19:41:56.157Z,101253.90
2018-04-16T19:44:23.805Z,101253.99
2018-04-16T19:46:51.431Z,101257.42
2018-04-16T19:49:24.497Z,101262.89
2018-04-16T19:51:52.290Z,101263.87
2018-04-16T19:54:20.842Z,101271.62
2018-04-16T19:59:51.685Z,101276.16
2018-04-16T20:02:24.793Z,101280.89
2018-04-16T20:04:52.960Z,101281.40
2018-04-16T20:07:20.547Z,101286.88
2018-04-16T20:09:48.134Z,101288.11
2018-04-16T20:12:16.853Z,101283.70
2018-04-16T20:14:44.516Z,101292.61
2018-04-16T20:17:12.796Z,101289.41
2018-04-16T20:19:40.475Z,101294.98
2018-04-16T20:22:08.087Z,101296.22
2018-04-16T20:24:35.711Z,101301.92
2018-04-16T20:27:03.230Z,101311.80
2018-04-16T20:29:30.986Z,101309.28
2018-04-16T20:31:58.661Z,101320.03
2018-04-16T20:34:26.325Z,101316.70
2018-04-16T20:36:54.108Z,101320.03
2018-04-16T20:39:23.107Z,101318.04
2018-04-16T20:41:50.895Z,101324.25
2018-04-16T20:44:18.458Z,101320.55
2018-04-16T20:46:46.013Z,101319.16
2018-04-16T20:49:13.636Z,101325.53
2018-04-16T20:51:41.223Z,101331.19
2018-04-16T20:54:08.820Z,101336.01
2018-04-16T20:56:36.747Z,101332.39
2018-04-16T20:59:04.476Z,101340.16
2018-04-16T21:01:32.334Z,101342.20
2018-04-16T21:04:00.462Z,101342.56
2018-04-16T21:06:31.136Z,101343.34
2018-04-16T21:08:59.438Z,101347.64
2018-04-16T21:11:27.028Z,101351.38
2018-04-16T21:13:55.056Z,101356.28
2018-04-16T21:16:22.604Z,101349.25
2018-04-16T21:18:50.258Z,101356.36
2018-04-16T21:21:19.966Z,101350.43
2018-04-16T21:23:52.324Z,101355.45
2018-04-16T21:26:22.515Z,101353.97
2018-04-16T21:28:50.350Z,101361.28
2018-04-16T21:31:18.271Z,101357.02
2018-04-16T21:33:45.795Z,101357.33
2018-04-16T21:36:13.439Z,101365.98
2018-04-16T21:38:40.971Z,101366.91
2018-04-16T21:41:08.569Z,101370.55
2018-04-16T21:43:39.583Z,101376.67
2018-04-16T21:46:09.207Z,101371.81
2018-04-16T21:48:36.811Z,101379.24
2018-04-16T21:51:04.524Z,101378.08
2018-04-16T21:53:32.374Z,101385.12
2018-04-16T21:56:00.580Z,101388.34
2018-04-16T21:58:28.209Z,101390.92
2018-04-16T22:00:55.844Z,101398.41
2018-04-16T22:03:23.478Z,101402.08
2018-04-16T22:05:51.236Z,101409.20
2018-04-16T22:08:19.835Z,101400.65
2018-04-16T22:10:49.441Z,101404.44
2018-04-16T22:13:16.986Z,101412.46
2018-04-16T22:15:45.203Z,101409.15
2018-04-16T22:18:13.439Z,101410.31
2018-04-16T22:20:41.386Z,101416.81
2018-04-16T22:23:08.949Z,101416.52
2018-04-16T22:25:36.485Z,101421.47
2018-04-16T22:28:04.014Z,101417.11
2018-04-16T22:30:32.453Z,101413.80
2018-04-16T22:33:00.017Z,101419.34
2018-04-16T22:35:27.541Z,101414.13
2018-04-16T22:37:55.876Z,101420.63
2018-04-16T22:40:23.428Z,101420.27
2018-04-16T22:42:51.077Z,101431.25
2018-04-16T22:45:18.646Z,101434.86
2018-04-16T22:47:46.471Z,101440.94
2018-04-16T22:50:14.000Z,101449.95
2018-04-16T22:52:41.561Z,101452.92
2018-04-16T22:55:09.120Z,101454.17
2018-04-16T22:57:36.642Z,101455.99
2018-04-16T23:00:04.473Z,101467.25
2018-04-16T23:02:32.052Z,101464.54
2018-04-16T23:04:59.594Z,101468.48
2018-04-16T23:07:27.133Z,101477.63
2018-04-16T23:09:54.637Z,101474.28
2018-04-16T23:12:22.171Z,101476.27
2018-04-16T23:14:49.726Z,101481.22
2018-04-16T23:17:17.257Z,101483.31
2018-04-16T23:19:44.846Z,101491.11
2018-04-16T23:22:15.178Z,101484.16
2018-04-16T23:24:42.752Z,101495.36
2018-04-16T23:27:10.617Z,101500.67
2018-04-16T23:29:38.600Z,101503.45
2018-04-16T23:32:06.129Z,101505.71
2018-04-16T23:34:33.964Z,101499.30
2018-04-16T23:37:01.511Z,101502.94
2018-04-16T23:39:29.334Z,101503.19
2018-04-16T23:41:56.852Z,101509.98
2018-04-16T23:44:24.408Z,101517.10
2018-04-16T23:46:51.948Z,101516.56
2018-04-16T23:49:19.481Z,101527.09
2018-04-16T23:51:47.045Z,101535.14
2018-04-16T23:54:14.577Z,101540.05
2018-04-16T23:56:42.900Z,101541.89
2018-04-16T23:59:10.482Z,101543.58
